sensor_id;sensor_type;location;lat;lon;timestamp;pressure;altitude;pressure_sealevel;temperature;humidity
73341;BME280;61578;52.002;5.468;2023-05-20T00:00:03;102435.03;;;13.49;64.25
73341;BME280;61578;52.002;5.468;2023-05-20T00:00:35;102428.91;;;13.47;63.32
73341;BME280;61578;52.002;5.468;2023-05-20T00:01:06;102433.31;;;13.48;63.00
73341;BME280;61578;52.002;5.468;2023-05-20T00:01:37;102423.97;;;13.40;63.71
73341;BME280;61578;52.002;5.468;2023-05-20T00:02:07;102435.13;;;13.48;62.89
73341;BME280;61578;52.002;5.468;2023-05-20T00:02:38;102433.31;;;13.48;64.17
73341;BME280;61578;52.002;5.468;2023-05-20T00:03:09;102437.72;;;13.49;63.89
73341;BME280;61578;52.002;5.468;2023-05-20T00:03:40;102433.31;;;13.48;63.95
73341;BME280;61578;52.002;5.468;2023-05-20T00:04:11;102417.78;;;13.39;64.07
73341;BME280;61578;52.002;5.468;2023-05-20T00:04:41;102431.50;;;13.49;63.60
73341;BME280;61578;52.002;5.468;2023-05-20T00:05:13;102433.31;;;13.48;62.85
73341;BME280;61578;52.002;5.468;2023-05-20T00:05:43;102435.97;;;13.48;62.78
73341;BME280;61578;52.002;5.468;2023-05-20T00:06:16;102429.63;;;13.51;63.74
73341;BME280;61578;52.002;5.468;2023-05-20T00:06:47;102428.97;;;13.46;63.05
73341;BME280;61578;52.002;5.468;2023-05-20T00:07:18;102430.66;;;13.48;63.32
73341;BME280;61578;52.002;5.468;2023-05-20T00:07:49;102433.31;;;13.48;62.98
73341;BME280;61578;52.002;5.468;2023-05-20T00:08:25;102436.78;;;13.50;63.30
73341;BME280;61578;52.002;5.468;2023-05-20T00:08:56;102415.81;;;13.43;62.82
73341;BME280;61578;52.002;5.468;2023-05-20T00:09:28;102441.31;;;13.48;63.69
73341;BME280;61578;52.002;5.468;2023-05-20T00:10:01;102422.78;;;13.45;63.06
73341;BME280;61578;52.002;5.468;2023-05-20T00:10:31;102435.13;;;13.48;63.47
73341;BME280;61578;52.002;5.468;2023-05-20T00:11:02;102435.19;;;13.46;63.96
73341;BME280;61578;52.002;5.468;2023-05-20T00:11:33;102430.66;;;13.48;63.57
73341;BME280;61578;52.002;5.468;2023-05-20T00:12:04;102431.66;;;13.46;64.10
73341;BME280;61578;52.002;5.468;2023-05-20T00:12:37;102428.13;;;13.45;63.70
73341;BME280;61578;52.002;5.468;2023-05-20T00:13:11;102424.91;;;13.39;63.50
73341;BME280;61578;52.002;5.468;2023-05-20T00:13:41;102439.66;;;13.46;63.72
73341;BME280;61578;52.002;5.468;2023-05-20T00:14:13;102434.41;;;13.44;64.12
73341;BME280;61578;52.002;5.468;2023-05-20T00:14:44;102428.97;;;13.46;63.91
73341;BME280;61578;52.002;5.468;2023-05-20T00:15:14;102434.41;;;13.44;63.34
73341;BME280;61578;52.002;5.468;2023-05-20T00:15:45;102439.72;;;13.44;62.74
73341;BME280;61578;52.002;5.468;2023-05-20T00:16:16;102425.06;;;13.36;63.19
73341;BME280;61578;52.002;5.468;2023-05-20T00:16:47;102436.13;;;13.45;63.40
73341;BME280;61578;52.002;5.468;2023-05-20T00:17:18;102428.97;;;13.46;63.61
73341;BME280;61578;52.002;5.468;2023-05-20T00:17:48;102440.53;;;13.46;63.57
73341;BME280;61578;52.002;5.468;2023-05-20T00:18:25;102441.47;;;13.45;63.76
73341;BME280;61578;52.002;5.468;2023-05-20T00:18:56;102438.97;;;13.42;63.80
73341;BME280;61578;52.002;5.468;2023-05-20T00:19:27;102436.91;;;13.47;63.84
73341;BME280;61578;52.002;5.468;2023-05-20T00:19:57;102432.59;;;13.45;63.17
73341;BME280;61578;52.002;5.468;2023-05-20T00:20:29;102437.06;;;13.44;62.93
73341;BME280;61578;52.002;5.468;2023-05-20T00:21:00;102436.91;;;13.47;64.02
73341;BME280;61578;52.002;5.468;2023-05-20T00:21:31;102438.56;;;13.50;63.42
73341;BME280;61578;52.002;5.468;2023-05-20T00:22:03;102445.72;;;13.49;62.80
73341;BME280;61578;52.002;5.468;2023-05-20T00:22:34;102439.44;;;13.50;62.64
73341;BME280;61578;52.002;5.468;2023-05-20T00:23:05;102440.38;;;13.49;62.80
73341;BME280;61578;52.002;5.468;2023-05-20T00:23:36;102439.44;;;13.50;63.13
73341;BME280;61578;52.002;5.468;2023-05-20T00:24:09;102444.91;;;13.47;62.76
73341;BME280;61578;52.002;5.468;2023-05-20T00:24:40;102438.88;;;13.44;62.10
73341;BME280;61578;52.002;5.468;2023-05-20T00:25:10;102440.69;;;13.43;61.80
73341;BME280;61578;52.002;5.468;2023-05-20T00:25:43;102424.97;;;13.37;62.70
73341;BME280;61578;52.002;5.468;2023-05-20T00:26:14;102436.84;;;13.49;62.75
73341;BME280;61578;52.002;5.468;2023-05-20T00:26:45;102444.91;;;13.47;62.93
73341;BME280;61578;52.002;5.468;2023-05-20T00:27:15;102439.59;;;13.47;62.91
73341;BME280;61578;52.002;5.468;2023-05-20T00:27:49;102436.13;;;13.45;63.19
73341;BME280;61578;52.002;5.468;2023-05-20T00:28:22;102429.25;;;13.41;62.91
73341;BME280;61578;52.002;5.468;2023-05-20T00:28:53;102443.97;;;13.48;62.93
73341;BME280;61578;52.002;5.468;2023-05-20T00:29:23;102445.84;;;13.46;63.18
73341;BME280;61578;52.002;5.468;2023-05-20T00:29:54;102449.41;;;13.47;63.96
73341;BME280;61578;52.002;5.468;2023-05-20T00:30:25;102448.69;;;13.43;64.20
73341;BME280;61578;52.002;5.468;2023-05-20T00:30:56;102442.50;;;13.43;64.04
73341;BME280;61578;52.002;5.468;2023-05-20T00:31:26;102444.38;;;13.41;63.84
73341;BME280;61578;52.002;5.468;2023-05-20T00:31:57;102439.97;;;13.40;64.28
73341;BME280;61578;52.002;5.468;2023-05-20T00:32:28;102436.84;;;13.32;63.74
73341;BME280;61578;52.002;5.468;2023-05-20T00:32:58;102439.25;;;13.36;63.67
73341;BME280;61578;52.002;5.468;2023-05-20T00:33:29;102444.59;;;13.36;64.05
73341;BME280;61578;52.002;5.468;2023-05-20T00:34:00;102434.25;;;13.30;63.98
73341;BME280;61578;52.002;5.468;2023-05-20T00:34:31;102434.00;;;13.35;64.00
73341;BME280;61578;52.002;5.468;2023-05-20T00:35:02;102437.59;;;13.34;64.17
73341;BME280;61578;52.002;5.468;2023-05-20T00:35:33;102441.38;;;13.30;64.11
73341;BME280;61578;52.002;5.468;2023-05-20T00:36:05;102433.44;;;13.28;63.18
73341;BME280;61578;52.002;5.468;2023-05-20T00:36:35;102435.97;;;13.31;63.54
73341;BME280;61578;52.002;5.468;2023-05-20T00:37:06;102439.59;;;13.30;64.61
73341;BME280;61578;52.002;5.468;2023-05-20T00:37:37;102433.44;;;13.28;64.03
73341;BME280;61578;52.002;5.468;2023-05-20T00:38:07;102434.47;;;13.25;63.70
73341;BME280;61578;52.002;5.468;2023-05-20T00:38:38;102439.00;;;13.23;64.79
73341;BME280;61578;52.002;5.468;2023-05-20T00:39:09;102437.19;;;13.24;64.86
73341;BME280;61578;52.002;5.468;2023-05-20T00:39:40;102442.72;;;13.21;63.95
73341;BME280;61578;52.002;5.468;2023-05-20T00:40:10;102440.97;;;13.20;63.50
73341;BME280;61578;52.002;5.468;2023-05-20T00:40:41;102437.50;;;13.18;64.09
73341;BME280;61578;52.002;5.468;2023-05-20T00:41:12;102438.44;;;13.17;64.53
73341;BME280;61578;52.002;5.468;2023-05-20T00:41:43;102431.38;;;13.16;63.88
73341;BME280;61578;52.002;5.468;2023-05-20T00:42:27;102434.13;;;13.14;63.91
73341;BME280;61578;52.002;5.468;2023-05-20T00:42:58;102436.88;;;13.13;64.29
73341;BME280;61578;52.002;5.468;2023-05-20T00:43:28;102435.94;;;13.14;64.31
73341;BME280;61578;52.002;5.468;2023-05-20T00:43:59;102428.00;;;13.12;63.99
73341;BME280;61578;52.002;5.468;2023-05-20T00:44:30;102440.47;;;13.12;64.45
73341;BME280;61578;52.002;5.468;2023-05-20T00:45:01;102435.13;;;13.12;64.65
73341;BME280;61578;52.002;5.468;2023-05-20T00:45:31;102434.19;;;13.13;64.42
73341;BME280;61578;52.002;5.468;2023-05-20T00:46:02;102435.13;;;13.12;64.72
73341;BME280;61578;52.002;5.468;2023-05-20T00:46:34;102424.53;;;13.10;64.21
73341;BME280;61578;52.002;5.468;2023-05-20T00:47:05;102441.41;;;13.11;65.37
73341;BME280;61578;52.002;5.468;2023-05-20T00:47:37;102432.59;;;13.09;64.78
73341;BME280;61578;52.002;5.468;2023-05-20T00:48:08;102403.06;;;12.95;64.98
73341;BME280;61578;52.002;5.468;2023-05-20T00:48:42;102432.59;;;13.09;64.95
73341;BME280;61578;52.002;5.468;2023-05-20T00:49:14;102430.81;;;13.09;64.29
73341;BME280;61578;52.002;5.468;2023-05-20T00:49:46;102427.28;;;13.09;64.08
73341;BME280;61578;52.002;5.468;2023-05-20T00:50:19;102429.88;;;13.10;64.64
73341;BME280;61578;52.002;5.468;2023-05-20T00:50:50;102428.22;;;13.08;64.88
73341;BME280;61578;52.002;5.468;2023-05-20T00:51:24;102425.63;;;13.06;65.09
73341;BME280;61578;52.002;5.468;2023-05-20T00:51:58;102420.41;;;13.03;65.12
73341;BME280;61578;52.002;5.468;2023-05-20T00:52:32;102424.81;;;13.04;65.50
73341;BME280;61578;52.002;5.468;2023-05-20T00:53:05;102429.47;;;13.01;65.68
73341;BME280;61578;52.002;5.468;2023-05-20T00:53:36;102424.13;;;13.01;65.63
73341;BME280;61578;52.002;5.468;2023-05-20T00:54:07;102414.84;;;12.90;65.21
73341;BME280;61578;52.002;5.468;2023-05-20T00:54:39;102417.13;;;12.98;65.72
73341;BME280;61578;52.002;5.468;2023-05-20T00:55:10;102420.72;;;12.97;64.81
73341;BME280;61578;52.002;5.468;2023-05-20T00:55:42;102409.66;;;12.87;65.17
73341;BME280;61578;52.002;5.468;2023-05-20T00:56:13;102418.13;;;12.96;66.29
73341;BME280;61578;52.002;5.468;2023-05-20T00:56:44;102419.81;;;12.98;65.49
73341;BME280;61578;52.002;5.468;2023-05-20T00:57:15;102417.19;;;12.97;65.90
73341;BME280;61578;52.002;5.468;2023-05-20T00:57:49;102404.41;;;12.86;65.26
73341;BME280;61578;52.002;5.468;2023-05-20T00:58:19;102407.78;;;12.89;65.86
73341;BME280;61578;52.002;5.468;2023-05-20T00:58:51;102417.28;;;12.95;65.58
73341;BME280;61578;52.002;5.468;2023-05-20T00:59:22;102413.75;;;12.95;65.88
73341;BME280;61578;52.002;5.468;2023-05-20T00:59:54;102412.25;;;12.89;64.50
73341;BME280;61578;52.002;5.468;2023-05-20T01:00:25;102415.59;;;12.93;64.77
73341;BME280;61578;52.002;5.468;2023-05-20T01:00:58;102419.88;;;12.97;64.87
73341;BME280;61578;52.002;5.468;2023-05-20T01:01:31;102417.28;;;12.95;65.26
73341;BME280;61578;52.002;5.468;2023-05-20T01:02:05;102400.78;;;12.87;64.89
73341;BME280;61578;52.002;5.468;2023-05-20T01:02:36;102415.53;;;12.94;65.34
73341;BME280;61578;52.002;5.468;2023-05-20T01:03:10;102412.00;;;12.94;65.08
73341;BME280;61578;52.002;5.468;2023-05-20T01:03:41;102418.28;;;12.93;65.70
73341;BME280;61578;52.002;5.468;2023-05-20T01:04:12;102399.13;;;12.84;65.59
73341;BME280;61578;52.002;5.468;2023-05-20T01:04:49;102413.03;;;12.91;65.79
73341;BME280;61578;52.002;5.468;2023-05-20T01:05:19;102409.44;;;12.92;65.58
73341;BME280;61578;52.002;5.468;2023-05-20T01:05:50;102413.19;;;12.88;65.35
73341;BME280;61578;52.002;5.468;2023-05-20T01:06:21;102409.59;;;12.89;65.58
73341;BME280;61578;52.002;5.468;2023-05-20T01:06:52;102411.31;;;12.90;65.84
73341;BME280;61578;52.002;5.468;2023-05-20T01:07:23;102410.44;;;12.89;65.97
73341;BME280;61578;52.002;5.468;2023-05-20T01:07:55;102415.78;;;12.89;65.70
73341;BME280;61578;52.002;5.468;2023-05-20T01:08:26;102418.50;;;12.88;65.52
73341;BME280;61578;52.002;5.468;2023-05-20T01:08:57;102410.59;;;12.86;65.97
73341;BME280;61578;52.002;5.468;2023-05-20T01:09:30;102411.38;;;12.88;65.43
73341;BME280;61578;52.002;5.468;2023-05-20T01:10:01;102416.72;;;12.88;65.43
73341;BME280;61578;52.002;5.468;2023-05-20T01:10:38;102411.38;;;12.88;65.44
73341;BME280;61578;52.002;5.468;2023-05-20T01:11:33;102406.84;;;12.90;66.17
73341;BME280;61578;52.002;5.468;2023-05-20T01:12:54;102411.31;;;12.90;65.88
73341;BME280;61578;52.002;5.468;2023-05-20T01:13:46;102400.66;;;12.90;66.21
73341;BME280;61578;52.002;5.468;2023-05-20T01:14:24;102411.38;;;12.88;66.11
73341;BME280;61578;52.002;5.468;2023-05-20T01:15:10;102406.13;;;12.87;66.49
73341;BME280;61578;52.002;5.468;2023-05-20T01:15:46;102408.00;;;12.85;65.97
73341;BME280;61578;52.002;5.468;2023-05-20T01:16:21;102410.84;;;12.82;66.40
73341;BME280;61578;52.002;5.468;2023-05-20T01:16:55;102403.78;;;12.81;66.42
73341;BME280;61578;52.002;5.468;2023-05-20T01:17:32;102396.91;;;12.75;66.63
73341;BME280;61578;52.002;5.468;2023-05-20T01:18:13;102399.59;;;12.75;66.44
73341;BME280;61578;52.002;5.468;2023-05-20T01:18:54;102403.19;;;12.74;66.48
73341;BME280;61578;52.002;5.468;2023-05-20T01:19:35;102402.31;;;12.74;66.35
73341;BME280;61578;52.002;5.468;2023-05-20T01:20:13;102395.50;;;12.68;66.83
73341;BME280;61578;52.002;5.468;2023-05-20T01:20:49;102407.56;;;12.75;66.13
73341;BME280;61578;52.002;5.468;2023-05-20T01:21:23;102409.31;;;12.76;66.51
73341;BME280;61578;52.002;5.468;2023-05-20T01:21:59;102406.72;;;12.75;66.83
73341;BME280;61578;52.002;5.468;2023-05-20T01:22:32;102404.84;;;12.77;66.96
73341;BME280;61578;52.002;5.468;2023-05-20T01:23:03;102401.31;;;12.76;66.41
73341;BME280;61578;52.002;5.468;2023-05-20T01:23:38;102403.13;;;12.76;66.21
73341;BME280;61578;52.002;5.468;2023-05-20T01:24:10;102395.34;;;12.71;66.39
73341;BME280;61578;52.002;5.468;2023-05-20T01:24:45;102398.78;;;12.73;66.11
73341;BME280;61578;52.002;5.468;2023-05-20T01:25:23;102403.19;;;12.74;66.02
73341;BME280;61578;52.002;5.468;2023-05-20T01:25:54;102406.72;;;12.75;66.88
73341;BME280;61578;52.002;5.468;2023-05-20T01:26:25;102402.38;;;12.72;67.25
73341;BME280;61578;52.002;5.468;2023-05-20T01:26:56;102400.38;;;12.77;67.25
73341;BME280;61578;52.002;5.468;2023-05-20T01:27:27;102407.50;;;12.77;67.17
73341;BME280;61578;52.002;5.468;2023-05-20T01:27:59;102406.63;;;12.76;66.61
73341;BME280;61578;52.002;5.468;2023-05-20T01:28:32;102410.31;;;12.74;66.14
73341;BME280;61578;52.002;5.468;2023-05-20T01:29:05;102410.31;;;12.74;66.45
73341;BME280;61578;52.002;5.468;2023-05-20T01:29:39;102410.31;;;12.74;66.18
73341;BME280;61578;52.002;5.468;2023-05-20T01:30:12;102389.28;;;12.68;66.05
73341;BME280;61578;52.002;5.468;2023-05-20T01:30:49;102398.72;;;12.75;66.32
73341;BME280;61578;52.002;5.468;2023-05-20T01:31:31;102405.78;;;12.76;66.01
73341;BME280;61578;52.002;5.468;2023-05-20T01:32:18;102401.25;;;12.78;66.56
73341;BME280;61578;52.002;5.468;2023-05-20T01:33:01;102406.56;;;12.78;66.95
73341;BME280;61578;52.002;5.468;2023-05-20T01:33:40;102400.44;;;12.76;67.05
73341;BME280;61578;52.002;5.468;2023-05-20T01:34:12;102402.19;;;12.77;67.68
73341;BME280;61578;52.002;5.468;2023-05-20T01:34:47;102397.84;;;12.74;67.84
73341;BME280;61578;52.002;5.468;2023-05-20T01:35:22;102391.91;;;12.69;67.09
73341;BME280;61578;52.002;5.468;2023-05-20T01:35:54;102397.16;;;12.71;66.95
73341;BME280;61578;52.002;5.468;2023-05-20T01:36:27;102398.97;;;12.70;67.47
73341;BME280;61578;52.002;5.468;2023-05-20T01:36:59;102403.50;;;12.68;67.66
73341;BME280;61578;52.002;5.468;2023-05-20T01:37:36;102395.63;;;12.65;67.38
73341;BME280;61578;52.002;5.468;2023-05-20T01:38:11;102391.22;;;12.64;67.41
73341;BME280;61578;52.002;5.468;2023-05-20T01:38:43;102397.44;;;12.65;67.07
73341;BME280;61578;52.002;5.468;2023-05-20T01:39:16;102386.06;;;12.61;67.77
73341;BME280;61578;52.002;5.468;2023-05-20T01:39:49;102395.63;;;12.65;66.56
73341;BME280;61578;52.002;5.468;2023-05-20T01:40:24;102395.75;;;12.62;66.77
73341;BME280;61578;52.002;5.468;2023-05-20T01:40:58;102391.22;;;12.64;67.91
73341;BME280;61578;52.002;5.468;2023-05-20T01:41:34;102389.69;;;12.60;68.05
73341;BME280;61578;52.002;5.468;2023-05-20T01:42:08;102385.34;;;12.58;68.20
73341;BME280;61578;52.002;5.468;2023-05-20T01:42:42;102384.47;;;12.57;68.01
73341;BME280;61578;52.002;5.468;2023-05-20T01:43:16;102388.88;;;12.58;67.36
73341;BME280;61578;52.002;5.468;2023-05-20T01:43:48;102387.16;;;12.57;67.59
73341;BME280;61578;52.002;5.468;2023-05-20T01:44:19;102387.94;;;12.59;68.13
73341;BME280;61578;52.002;5.468;2023-05-20T01:44:51;102375.06;;;12.50;67.09
73341;BME280;61578;52.002;5.468;2023-05-20T01:45:22;102392.47;;;12.57;67.15
73341;BME280;61578;52.002;5.468;2023-05-20T01:45:53;102381.69;;;12.60;66.88
73341;BME280;61578;52.002;5.468;2023-05-20T01:46:32;102385.34;;;12.58;67.34
73341;BME280;61578;52.002;5.468;2023-05-20T01:47:04;102391.59;;;12.57;67.43
73341;BME280;61578;52.002;5.468;2023-05-20T01:47:38;102391.53;;;12.58;67.83
73341;BME280;61578;52.002;5.468;2023-05-20T01:48:12;102389.00;;;12.55;67.90
73341;BME280;61578;52.002;5.468;2023-05-20T01:48:42;102385.41;;;12.56;67.48
73341;BME280;61578;52.002;5.468;2023-05-20T01:49:13;102391.47;;;12.60;67.43
73341;BME280;61578;52.002;5.468;2023-05-20T01:49:44;102371.38;;;12.52;67.47
73341;BME280;61578;52.002;5.468;2023-05-20T01:50:15;102381.69;;;12.60;67.25
73341;BME280;61578;52.002;5.468;2023-05-20T01:50:46;102382.44;;;12.62;67.62
73341;BME280;61578;52.002;5.468;2023-05-20T01:51:17;102384.09;;;12.65;67.07
73341;BME280;61578;52.002;5.468;2023-05-20T01:51:48;102378.94;;;12.62;66.90
73341;BME280;61578;52.002;5.468;2023-05-20T01:52:21;102386.16;;;12.60;66.84
73341;BME280;61578;52.002;5.468;2023-05-20T01:52:55;102384.19;;;12.63;67.03
73341;BME280;61578;52.002;5.468;2023-05-20T01:53:26;102382.44;;;12.62;67.28
73341;BME280;61578;52.002;5.468;2023-05-20T01:53:57;102384.19;;;12.63;66.96
73341;BME280;61578;52.002;5.468;2023-05-20T01:54:28;102378.84;;;12.63;67.17
73341;BME280;61578;52.002;5.468;2023-05-20T01:54:58;102384.19;;;12.63;67.03
73341;BME280;61578;52.002;5.468;2023-05-20T01:55:29;102384.09;;;12.65;67.25
73341;BME280;61578;52.002;5.468;2023-05-20T01:56:00;102375.25;;;12.64;66.91
73341;BME280;61578;52.002;5.468;2023-05-20T01:56:30;102370.22;;;12.58;67.07
73341;BME280;61578;52.002;5.468;2023-05-20T01:57:01;102381.44;;;12.65;67.16
73341;BME280;61578;52.002;5.468;2023-05-20T01:57:32;102376.97;;;12.65;66.85
73341;BME280;61578;52.002;5.468;2023-05-20T01:58:04;102368.28;;;12.62;66.63
73341;BME280;61578;52.002;5.468;2023-05-20T01:58:35;102368.34;;;12.60;66.85
73341;BME280;61578;52.002;5.468;2023-05-20T01:59:05;102379.50;;;12.68;67.71
73341;BME280;61578;52.002;5.468;2023-05-20T01:59:36;102382.25;;;12.67;67.63
73341;BME280;61578;52.002;5.468;2023-05-20T02:00:07;102377.78;;;12.67;67.47
73341;BME280;61578;52.002;5.468;2023-05-20T02:00:39;102376.03;;;12.66;67.67
73341;BME280;61578;52.002;5.468;2023-05-20T02:01:09;102379.56;;;12.67;67.15
73341;BME280;61578;52.002;5.468;2023-05-20T02:01:46;102382.25;;;12.67;66.94
73341;BME280;61578;52.002;5.468;2023-05-20T02:02:17;102378.72;;;12.66;67.47
73341;BME280;61578;52.002;5.468;2023-05-20T02:02:47;102379.56;;;12.67;67.88
73341;BME280;61578;52.002;5.468;2023-05-20T02:03:18;102370.66;;;12.68;67.46
73341;BME280;61578;52.002;5.468;2023-05-20T02:03:49;102384.03;;;12.66;67.24
73341;BME280;61578;52.002;5.468;2023-05-20T02:04:19;102379.56;;;12.67;67.35
73341;BME280;61578;52.002;5.468;2023-05-20T02:04:53;102385.84;;;12.66;67.17
73341;BME280;61578;52.002;5.468;2023-05-20T02:05:23;102383.25;;;12.64;68.01
73341;BME280;61578;52.002;5.468;2023-05-20T02:05:54;102382.38;;;12.64;67.34
73341;BME280;61578;52.002;5.468;2023-05-20T02:06:25;102370.44;;;12.53;67.71
73341;BME280;61578;52.002;5.468;2023-05-20T02:06:56;102384.28;;;12.62;67.82
73341;BME280;61578;52.002;5.468;2023-05-20T02:07:26;102377.28;;;12.59;67.37
73341;BME280;61578;52.002;5.468;2023-05-20T02:07:57;102386.16;;;12.60;68.03
73341;BME280;61578;52.002;5.468;2023-05-20T02:08:28;102383.47;;;12.60;67.52
73341;BME280;61578;52.002;5.468;2023-05-20T02:08:58;102379.09;;;12.59;67.70
73341;BME280;61578;52.002;5.468;2023-05-20T02:09:30;102374.69;;;12.58;67.99
73341;BME280;61578;52.002;5.468;2023-05-20T02:10:00;102387.06;;;12.59;67.77
73341;BME280;61578;52.002;5.468;2023-05-20T02:10:31;102381.81;;;12.57;67.68
73341;BME280;61578;52.002;5.468;2023-05-20T02:11:02;102378.22;;;12.58;67.98
73341;BME280;61578;52.002;5.468;2023-05-20T02:11:32;102380.09;;;12.56;67.36
73341;BME280;61578;52.002;5.468;2023-05-20T02:12:03;102381.81;;;12.57;67.96
73341;BME280;61578;52.002;5.468;2023-05-20T02:12:34;102374.75;;;12.56;68.10
73341;BME280;61578;52.002;5.468;2023-05-20T02:13:04;102372.88;;;12.58;68.48
73341;BME280;61578;52.002;5.468;2023-05-20T02:13:38;102372.97;;;12.57;68.20
73341;BME280;61578;52.002;5.468;2023-05-20T02:14:09;102384.34;;;12.60;67.76
73341;BME280;61578;52.002;5.468;2023-05-20T02:14:39;102379.94;;;12.59;67.54
73341;BME280;61578;52.002;5.468;2023-05-20T02:15:16;102371.16;;;12.57;67.92
73341;BME280;61578;52.002;5.468;2023-05-20T02:15:47;102372.88;;;12.58;67.99
73341;BME280;61578;52.002;5.468;2023-05-20T02:16:18;102378.16;;;12.60;68.17
73341;BME280;61578;52.002;5.468;2023-05-20T02:16:49;102378.22;;;12.58;68.19
73341;BME280;61578;52.002;5.468;2023-05-20T02:17:19;102376.41;;;12.59;67.60
73341;BME280;61578;52.002;5.468;2023-05-20T02:17:50;102379.00;;;12.60;67.91
73341;BME280;61578;52.002;5.468;2023-05-20T02:18:21;102381.63;;;12.62;67.81
73341;BME280;61578;52.002;5.468;2023-05-20T02:18:51;102389.50;;;12.63;68.16
73341;BME280;61578;52.002;5.468;2023-05-20T02:19:22;102380.75;;;12.61;68.45
73341;BME280;61578;52.002;5.468;2023-05-20T02:19:55;102364.34;;;12.51;67.74
73341;BME280;61578;52.002;5.468;2023-05-20T02:20:26;102369.72;;;12.50;68.20
73341;BME280;61578;52.002;5.468;2023-05-20T02:21:02;102380.94;;;12.57;68.20
73341;BME280;61578;52.002;5.468;2023-05-20T02:21:33;102385.47;;;12.54;68.21
73341;BME280;61578;52.002;5.468;2023-05-20T02:22:05;102386.41;;;12.53;67.87
73341;BME280;61578;52.002;5.468;2023-05-20T02:22:39;102383.06;;;12.50;68.27
73341;BME280;61578;52.002;5.468;2023-05-20T02:23:09;102381.38;;;12.47;68.39
73341;BME280;61578;52.002;5.468;2023-05-20T02:23:40;102381.38;;;12.47;68.02
73341;BME280;61578;52.002;5.468;2023-05-20T02:24:11;102384.06;;;12.47;68.64
73341;BME280;61578;52.002;5.468;2023-05-20T02:24:42;102373.84;;;12.38;68.39
73341;BME280;61578;52.002;5.468;2023-05-20T02:25:12;102382.41;;;12.45;68.57
73341;BME280;61578;52.002;5.468;2023-05-20T02:25:43;102384.19;;;12.44;68.46
73341;BME280;61578;52.002;5.468;2023-05-20T02:26:14;102375.56;;;12.39;68.07
73341;BME280;61578;52.002;5.468;2023-05-20T02:26:45;102385.91;;;12.45;68.45
73341;BME280;61578;52.002;5.468;2023-05-20T02:27:16;102384.13;;;12.46;68.31
73341;BME280;61578;52.002;5.468;2023-05-20T02:27:47;102387.66;;;12.46;68.71
73341;BME280;61578;52.002;5.468;2023-05-20T02:28:18;102381.53;;;12.44;68.18
73341;BME280;61578;52.002;5.468;2023-05-20T02:28:49;102383.50;;;12.41;68.07
73341;BME280;61578;52.002;5.468;2023-05-20T02:29:22;102381.59;;;12.43;67.84
73341;BME280;61578;52.002;5.468;2023-05-20T02:29:53;102379.88;;;12.42;68.12
73341;BME280;61578;52.002;5.468;2023-05-20T02:30:26;102384.13;;;12.46;68.46
73341;BME280;61578;52.002;5.468;2023-05-20T02:30:57;102377.94;;;12.45;68.43
73341;BME280;61578;52.002;5.468;2023-05-20T02:31:27;102368.38;;;12.41;68.14
73341;BME280;61578;52.002;5.468;2023-05-20T02:31:58;102370.00;;;12.44;68.46
73341;BME280;61578;52.002;5.468;2023-05-20T02:32:29;102377.00;;;12.46;68.89
73341;BME280;61578;52.002;5.468;2023-05-20T02:33:00;102372.66;;;12.44;68.79
73341;BME280;61578;52.002;5.468;2023-05-20T02:33:31;102366.66;;;12.40;68.81
73341;BME280;61578;52.002;5.468;2023-05-20T02:34:02;102369.06;;;12.45;68.98
73341;BME280;61578;52.002;5.468;2023-05-20T02:34:34;102375.25;;;12.45;68.79
73341;BME280;61578;52.002;5.468;2023-05-20T02:35:04;102370.00;;;12.44;69.18
73341;BME280;61578;52.002;5.468;2023-05-20T02:35:35;102373.59;;;12.43;69.03
73341;BME280;61578;52.002;5.468;2023-05-20T02:36:06;102370.94;;;12.43;68.59
73341;BME280;61578;52.002;5.468;2023-05-20T02:36:37;102372.75;;;12.42;68.97
73341;BME280;61578;52.002;5.468;2023-05-20T02:37:08;102371.97;;;12.40;68.92
73341;BME280;61578;52.002;5.468;2023-05-20T02:37:38;102365.84;;;12.38;68.73
73341;BME280;61578;52.002;5.468;2023-05-20T02:38:10;102369.56;;;12.34;69.01
73341;BME280;61578;52.002;5.468;2023-05-20T02:38:42;102370.31;;;12.38;68.74
73341;BME280;61578;52.002;5.468;2023-05-20T02:39:13;102371.19;;;12.38;68.87
73341;BME280;61578;52.002;5.468;2023-05-20T02:39:44;102369.44;;;12.37;68.77
73341;BME280;61578;52.002;5.468;2023-05-20T02:40:15;102357.19;;;12.33;68.47
73341;BME280;61578;52.002;5.468;2023-05-20T02:40:49;102367.56;;;12.39;68.79
73341;BME280;61578;52.002;5.468;2023-05-20T02:41:22;102373.84;;;12.38;68.76
73341;BME280;61578;52.002;5.468;2023-05-20T02:41:53;102363.19;;;12.38;68.89
73341;BME280;61578;52.002;5.468;2023-05-20T02:42:24;102371.97;;;12.40;69.78
73341;BME280;61578;52.002;5.468;2023-05-20T02:42:54;102371.09;;;12.40;69.03
73341;BME280;61578;52.002;5.468;2023-05-20T02:43:25;102368.56;;;12.37;69.12
73341;BME280;61578;52.002;5.468;2023-05-20T02:43:56;102377.38;;;12.39;69.33
73341;BME280;61578;52.002;5.468;2023-05-20T02:44:26;102361.66;;;12.33;69.21
73341;BME280;61578;52.002;5.468;2023-05-20T02:44:57;102368.50;;;12.38;69.04
73341;BME280;61578;52.002;5.468;2023-05-20T02:45:28;102368.38;;;12.41;69.15
73341;BME280;61578;52.002;5.468;2023-05-20T02:45:59;102371.03;;;12.41;69.19
73341;BME280;61578;52.002;5.468;2023-05-20T02:46:30;102372.84;;;12.41;68.94
73341;BME280;61578;52.002;5.468;2023-05-20T02:47:01;102350.06;;;12.34;69.42
73341;BME280;61578;52.002;5.468;2023-05-20T02:47:31;102358.78;;;12.37;69.15
73341;BME280;61578;52.002;5.468;2023-05-20T02:48:03;102366.72;;;12.39;68.95
73341;BME280;61578;52.002;5.468;2023-05-20T02:48:34;102364.97;;;12.38;69.41
73341;BME280;61578;52.002;5.468;2023-05-20T02:49:04;102364.13;;;12.37;69.30